McAlister, New Mexico
Current Conditions -  °F | °C
As of 11:56 PM on Sunday 21 Dec 2014 (Local Time) from K4MR Reporting Station
Clear Clear  
Wind Chill: 51°   Ceiling: Unl
Heat Index: 51°   Visibility: 10mi
Dew Point: 29°   Wind: 23mph
Humidity: 43%   Direction: 260°W
Pressure: 29.73"   Gusts: 31mph
Location:  34.69°N, 103.78°W
Report Text: K4MR 220656Z AUTO 26020G27KT 10SM CLR 10/M02 A2973 RMK AO2 PK WND 27031/06 SLP036 T01041017 401540025
Loading
Personal Weather Stations






























Interactive Weather Map New forecast layout! Learn more

10-Day Weather Forecast

Advertisements
Track Severe Weather on mobile